createdAt,value
2023-03-20T00:00:24.477Z,8.76
2023-03-20T00:02:58.074Z,8.74
2023-03-20T00:05:28.323Z,8.78
2023-03-20T00:08:02.034Z,8.77
2023-03-20T00:10:46.029Z,8.76
2023-03-20T00:13:35.104Z,8.78
2023-03-20T00:16:01.801Z,8.68
2023-03-20T00:18:36.098Z,8.77
2023-03-20T00:21:09.117Z,8.74
2023-03-20T00:23:36.131Z,8.76
2023-03-20T00:26:09.053Z,8.75
2023-03-20T00:28:40.855Z,8.75
2023-03-20T00:31:33.129Z,8.68
2023-03-20T00:34:02.414Z,8.76
2023-03-20T00:36:35.075Z,8.69
2023-03-20T00:39:02.030Z,8.74
2023-03-20T00:41:39.139Z,8.74
2023-03-20T00:44:28.211Z,8.74
2023-03-20T00:47:09.122Z,8.73
2023-03-20T00:49:36.219Z,8.71
2023-03-20T00:52:11.049Z,8.65
2023-03-20T00:54:37.622Z,8.58
2023-03-20T00:57:16.110Z,8.54
2023-03-20T00:59:53.439Z,8.48
2023-03-20T01:02:28.202Z,8.42
2023-03-20T01:05:02.201Z,8.43
2023-03-20T01:07:28.904Z,8.40
2023-03-20T01:10:02.069Z,8.38
2023-03-20T01:12:35.121Z,8.35
2023-03-20T01:15:08.122Z,8.32
2023-03-20T01:17:34.694Z,8.32
2023-03-20T01:20:08.145Z,8.28
2023-03-20T01:22:34.658Z,8.27
2023-03-20T01:25:08.203Z,8.20
2023-03-20T01:27:34.842Z,8.14
2023-03-20T01:30:08.212Z,8.11
2023-03-20T01:32:34.918Z,8.08
2023-03-20T01:35:08.131Z,8.08
2023-03-20T01:37:34.782Z,7.99
2023-03-20T01:40:08.070Z,8.04
2023-03-20T01:42:34.698Z,8.01
2023-03-20T01:45:08.129Z,8.01
2023-03-20T01:47:42.223Z,8.01
2023-03-20T01:50:35.180Z,8.02
2023-03-20T01:53:25.029Z,8.01
2023-03-20T01:56:02.129Z,8.01
2023-03-20T01:58:44.252Z,8.00
2023-03-20T02:01:20.140Z,8.01
2023-03-20T02:03:50.029Z,7.99
2023-03-20T02:06:23.110Z,7.97
2023-03-20T02:08:52.402Z,7.97
2023-03-20T02:11:29.155Z,7.97
2023-03-20T02:14:05.096Z,7.97
2023-03-20T02:16:31.704Z,7.97
2023-03-20T02:19:05.161Z,7.90
2023-03-20T02:21:56.517Z,7.93
2023-03-20T02:25:01.125Z,7.91
2023-03-20T02:27:54.177Z,7.93
2023-03-20T02:30:49.198Z,7.93
2023-03-20T02:33:22.140Z,7.91
2023-03-20T02:36:06.714Z,7.89
2023-03-20T02:39:03.161Z,7.89
2023-03-20T02:41:39.190Z,7.85
2023-03-20T02:44:39.123Z,7.84
2023-03-20T02:47:27.110Z,7.84
2023-03-20T02:50:07.254Z,7.82
2023-03-20T02:52:49.185Z,7.77
2023-03-20T02:55:18.418Z,7.80
2023-03-20T02:58:07.170Z,7.77
2023-03-20T03:00:54.158Z,7.78
2023-03-20T03:03:41.234Z,7.76
2023-03-20T03:06:30.205Z,7.76
2023-03-20T03:09:12.787Z,7.72
2023-03-20T03:11:52.183Z,7.69
2023-03-20T03:14:53.190Z,7.75
2023-03-20T03:17:30.141Z,7.74
2023-03-20T03:20:02.483Z,7.72
2023-03-20T03:22:36.149Z,7.73
2023-03-20T03:25:09.235Z,7.73
2023-03-20T03:27:40.490Z,7.71
2023-03-20T03:30:28.259Z,7.69
2023-03-20T03:33:22.223Z,7.72
2023-03-20T03:35:56.203Z,7.70
2023-03-20T03:38:39.183Z,7.70
2023-03-20T03:41:39.179Z,7.71
2023-03-20T03:44:35.198Z,7.67
2023-03-20T03:47:14.226Z,7.62
2023-03-20T03:49:46.178Z,7.66
2023-03-20T03:52:26.163Z,7.67
2023-03-20T03:55:08.177Z,7.68
2023-03-20T03:57:51.310Z,7.64
2023-03-20T04:00:22.658Z,7.68
2023-03-20T04:03:00.209Z,7.65
2023-03-20T04:05:38.360Z,7.66
2023-03-20T04:08:06.493Z,7.65
2023-03-20T04:10:40.229Z,7.63
2023-03-20T04:13:06.930Z,7.61
2023-03-20T04:15:40.345Z,7.61
2023-03-20T04:18:13.145Z,7.60
2023-03-20T04:20:46.216Z,7.58
2023-03-20T04:23:20.234Z,7.56
2023-03-20T04:25:54.152Z,7.54
2023-03-20T04:28:20.773Z,7.50
2023-03-20T04:31:03.219Z,7.49
2023-03-20T04:33:36.209Z,7.46
2023-03-20T04:36:09.821Z,7.43
2023-03-20T04:38:43.233Z,7.35
2023-03-20T04:41:09.915Z,7.38
2023-03-20T04:43:43.269Z,7.29
2023-03-20T04:46:10.009Z,7.35
2023-03-20T04:48:50.226Z,7.33
2023-03-20T04:51:23.347Z,7.29
2023-03-20T04:53:56.175Z,7.29
2023-03-20T04:56:29.321Z,7.28
2023-03-20T04:58:55.957Z,7.25
2023-03-20T05:01:30.282Z,7.21
2023-03-20T05:04:01.009Z,7.24
2023-03-20T05:06:38.213Z,7.23
2023-03-20T05:09:05.572Z,7.19
2023-03-20T05:11:38.198Z,7.18
2023-03-20T05:14:05.217Z,7.19
2023-03-20T05:16:45.315Z,7.13
2023-03-20T05:19:11.928Z,7.13
2023-03-20T05:21:38.410Z,7.05
2023-03-20T05:24:12.223Z,7.10
2023-03-20T05:26:45.268Z,7.11
2023-03-20T05:29:11.945Z,7.10
2023-03-20T05:31:45.202Z,7.04
2023-03-20T05:34:11.757Z,7.08
2023-03-20T05:36:45.271Z,7.10
2023-03-20T05:39:11.844Z,7.09
2023-03-20T05:41:38.508Z,7.06
2023-03-20T05:44:12.327Z,7.07
2023-03-20T05:46:59.252Z,7.07
2023-03-20T05:49:32.251Z,7.01
2023-03-20T05:51:58.874Z,7.03
2023-03-20T05:54:32.245Z,6.98
2023-03-20T05:56:59.322Z,7.04
2023-03-20T05:59:33.224Z,7.04
2023-03-20T06:01:59.816Z,7.03
2023-03-20T06:04:33.273Z,7.04
2023-03-20T06:06:59.900Z,7.04
2023-03-20T06:09:33.312Z,7.03
2023-03-20T06:12:07.242Z,7.02
2023-03-20T06:14:40.298Z,7.02
2023-03-20T06:17:06.941Z,7.03
2023-03-20T06:19:33.578Z,7.03
2023-03-20T06:22:07.276Z,7.00
2023-03-20T06:24:34.481Z,7.00
2023-03-20T06:27:07.277Z,7.04
2023-03-20T06:29:34.046Z,7.06
2023-03-20T06:32:07.193Z,7.08
2023-03-20T06:34:34.009Z,7.09
2023-03-20T06:37:07.264Z,7.12
2023-03-20T06:39:33.841Z,7.17
2023-03-20T06:42:07.234Z,7.17
2023-03-20T06:44:33.817Z,7.20
2023-03-20T06:47:13.286Z,7.23
2023-03-20T06:49:46.374Z,7.24
2023-03-20T06:52:24.248Z,7.26
2023-03-20T06:55:21.276Z,7.28
2023-03-20T06:57:54.528Z,7.30
2023-03-20T07:00:28.295Z,7.32
2023-03-20T07:03:02.453Z,7.35
2023-03-20T07:05:29.062Z,7.31
2023-03-20T07:08:02.316Z,7.37
2023-03-20T07:10:35.246Z,7.33
2023-03-20T07:13:02.083Z,7.40
2023-03-20T07:15:36.508Z,7.40
2023-03-20T07:18:03.309Z,7.43
2023-03-20T07:20:36.270Z,7.47
2023-03-20T07:23:02.853Z,7.45
2023-03-20T07:25:42.874Z,7.45
2023-03-20T07:28:10.011Z,7.48
2023-03-20T07:30:43.315Z,7.50
2023-03-20T07:33:10.173Z,7.50
2023-03-20T07:35:43.318Z,7.52
2023-03-20T07:38:10.095Z,7.52
2023-03-20T07:40:37.081Z,7.56
2023-03-20T07:43:10.254Z,7.57
2023-03-20T07:45:37.245Z,7.59
2023-03-20T07:48:10.356Z,7.59
2023-03-20T07:50:37.211Z,7.63
2023-03-20T07:53:10.297Z,7.68
2023-03-20T07:55:37.207Z,7.71
2023-03-20T07:58:10.292Z,7.74
2023-03-20T08:00:37.054Z,7.75
2023-03-20T08:03:10.356Z,7.78
2023-03-20T08:05:38.031Z,7.87
2023-03-20T08:08:11.333Z,7.86
2023-03-20T08:10:38.067Z,7.97
2023-03-20T08:13:11.346Z,7.99
2023-03-20T08:15:44.358Z,8.12
2023-03-20T08:18:18.618Z,8.07
2023-03-20T08:21:01.306Z,8.14
2023-03-20T08:23:28.140Z,8.22
2023-03-20T08:26:08.385Z,8.25
2023-03-20T08:28:50.902Z,8.23
2023-03-20T08:31:25.353Z,8.25
2023-03-20T08:33:52.278Z,8.25
2023-03-20T08:36:28.333Z,8.28
2023-03-20T08:39:01.398Z,8.29
2023-03-20T08:41:34.306Z,8.37
2023-03-20T08:44:01.693Z,8.51
2023-03-20T08:46:34.400Z,8.47
2023-03-20T08:49:07.432Z,8.46
2023-03-20T08:51:47.324Z,8.51
2023-03-20T08:54:16.408Z,8.55
2023-03-20T08:56:49.302Z,8.61
2023-03-20T08:59:16.516Z,8.67
2023-03-20T09:02:00.393Z,8.68
2023-03-20T09:04:27.999Z,8.74
2023-03-20T09:09:37.322Z,8.84
2023-03-20T09:12:10.372Z,8.91
2023-03-20T09:14:45.362Z,8.93
2023-03-20T09:17:12.171Z,8.94
2023-03-20T09:19:51.366Z,8.94
2023-03-20T09:22:20.912Z,8.98
2023-03-20T09:24:54.400Z,9.06
2023-03-20T09:27:21.716Z,9.06
2023-03-20T09:29:55.435Z,9.09
2023-03-20T09:32:22.045Z,9.08
2023-03-20T09:34:55.319Z,8.99
2023-03-20T09:37:22.016Z,9.12
2023-03-20T09:39:55.373Z,9.19
2023-03-20T09:42:47.364Z,9.27
2023-03-20T09:45:34.290Z,9.32
2023-03-20T09:48:18.295Z,9.34
2023-03-20T09:51:25.422Z,9.38
2023-03-20T09:54:32.460Z,9.40
2023-03-20T09:57:35.524Z,9.39
2023-03-20T10:00:10.419Z,9.47
2023-03-20T10:02:54.380Z,9.54
2023-03-20T10:05:28.159Z,9.63
2023-03-20T10:08:03.351Z,9.61
2023-03-20T10:10:39.062Z,9.58
2023-03-20T10:13:27.362Z,9.41
2023-03-20T10:16:12.484Z,9.30
2023-03-20T10:18:50.342Z,9.19
2023-03-20T10:21:24.991Z,9.20
2023-03-20T10:24:09.362Z,9.23
2023-03-20T10:26:44.429Z,9.36
2023-03-20T10:29:29.295Z,9.45
2023-03-20T10:32:19.335Z,9.47
2023-03-20T10:35:16.348Z,9.65
2023-03-20T10:37:59.014Z,9.81
2023-03-20T10:40:36.858Z,9.87
2023-03-20T10:43:18.364Z,9.95
2023-03-20T10:45:53.377Z,9.92
2023-03-20T10:48:33.927Z,9.90
2023-03-20T10:51:21.446Z,9.99
2023-03-20T10:53:56.932Z,9.91
2023-03-20T10:56:37.537Z,9.99
2023-03-20T10:59:08.883Z,9.96
2023-03-20T11:01:42.382Z,9.84
2023-03-20T11:04:15.413Z,9.70
2023-03-20T11:06:53.368Z,9.55
2023-03-20T11:09:26.851Z,9.46
2023-03-20T11:12:04.342Z,9.32
2023-03-20T11:14:37.834Z,9.19
2023-03-20T11:17:12.365Z,9.10
2023-03-20T11:19:47.431Z,9.12
2023-03-20T11:22:26.303Z,9.15
2023-03-20T11:25:02.353Z,9.15
2023-03-20T11:27:34.589Z,9.18
2023-03-20T11:30:11.397Z,9.19
2023-03-20T11:32:46.666Z,9.15
2023-03-20T11:35:37.416Z,9.10
2023-03-20T11:38:13.965Z,9.10
2023-03-20T11:40:47.404Z,9.08
2023-03-20T11:43:25.473Z,9.09
2023-03-20T11:46:07.452Z,9.09
2023-03-20T11:48:48.100Z,9.01
2023-03-20T11:51:27.362Z,9.04
2023-03-20T11:54:05.654Z,9.12
2023-03-20T11:56:40.390Z,9.21
2023-03-20T11:59:06.882Z,9.37
2023-03-20T12:01:53.419Z,9.45
2023-03-20T12:04:30.883Z,9.44
2023-03-20T12:07:17.452Z,9.49
2023-03-20T12:09:58.401Z,9.55
2023-03-20T12:12:49.421Z,9.51
2023-03-20T12:15:26.554Z,9.37
2023-03-20T12:18:38.488Z,9.42
2023-03-20T12:21:19.581Z,9.38
2023-03-20T12:24:08.425Z,9.37
2023-03-20T12:27:15.119Z,9.26
2023-03-20T12:30:16.429Z,9.23
2023-03-20T12:33:48.451Z,9.25
2023-03-20T12:36:18.626Z,9.25
2023-03-20T12:38:52.497Z,9.19
2023-03-20T12:41:31.005Z,9.28
2023-03-20T12:44:09.426Z,9.22
2023-03-20T12:47:01.936Z,9.12
2023-03-20T12:49:59.406Z,9.16
2023-03-20T12:53:08.544Z,9.18
2023-03-20T12:55:47.602Z,9.18
2023-03-20T12:58:35.704Z,9.17
2023-03-20T13:01:26.546Z,9.18
2023-03-20T13:04:23.048Z,9.15
2023-03-20T13:07:11.492Z,9.12
2023-03-20T13:10:12.585Z,9.23
2023-03-20T13:13:03.024Z,9.25
2023-03-20T13:16:14.453Z,9.25
2023-03-20T13:19:12.490Z,9.19
2023-03-20T13:21:57.455Z,9.14
2023-03-20T13:24:47.527Z,9.12
2023-03-20T13:27:14.099Z,9.11
2023-03-20T13:30:08.561Z,9.06
2023-03-20T13:32:57.524Z,9.19
2023-03-20T13:35:59.517Z,9.21
2023-03-20T13:38:41.531Z,9.27
2023-03-20T13:41:10.689Z,9.28
2023-03-20T13:43:48.457Z,9.25
2023-03-20T13:46:19.313Z,9.26
2023-03-20T13:49:00.508Z,9.14
2023-03-20T13:51:33.690Z,9.09
2023-03-20T13:54:49.459Z,9.07
2023-03-20T13:57:44.891Z,8.99
2023-03-20T14:00:38.751Z,9.03
2023-03-20T14:03:31.529Z,9.00
2023-03-20T14:06:05.442Z,8.96
2023-03-20T14:08:36.800Z,8.94
2023-03-20T14:11:13.458Z,8.89
2023-03-20T14:13:44.773Z,8.78
2023-03-20T14:16:22.512Z,8.73
2023-03-20T14:19:05.841Z,8.67
2023-03-20T14:21:41.480Z,8.69
2023-03-20T14:24:14.249Z,8.59
2023-03-20T14:26:49.476Z,8.51
2023-03-20T14:29:16.089Z,8.49
2023-03-20T14:31:51.473Z,8.45
2023-03-20T14:34:23.463Z,8.36
2023-03-20T14:37:09.491Z,8.34
2023-03-20T14:40:18.547Z,8.31
2023-03-20T14:43:20.541Z,8.31
2023-03-20T14:45:52.374Z,8.27
2023-03-20T14:48:48.565Z,8.29
2023-03-20T14:51:34.584Z,8.27
2023-03-20T14:54:37.514Z,8.29
2023-03-20T14:57:55.125Z,8.25
2023-03-20T15:00:33.599Z,8.07
2023-03-20T15:03:15.437Z,8.09
2023-03-20T15:05:48.513Z,8.03
2023-03-20T15:08:22.245Z,8.03
2023-03-20T15:11:00.635Z,7.98
2023-03-20T15:13:29.213Z,7.94
2023-03-20T15:16:13.593Z,7.86
2023-03-20T15:18:44.015Z,7.81
2023-03-20T15:21:27.643Z,7.83
2023-03-20T15:23:54.314Z,7.84
2023-03-20T15:26:29.485Z,7.81
2023-03-20T15:29:13.494Z,7.83
2023-03-20T15:31:47.514Z,7.84
2023-03-20T15:34:27.159Z,7.81
2023-03-20T15:37:04.506Z,7.85
2023-03-20T15:39:42.723Z,7.82
2023-03-20T15:42:22.574Z,7.88
2023-03-20T15:44:58.492Z,7.85
2023-03-20T15:47:32.547Z,7.86
2023-03-20T15:50:12.753Z,7.84
2023-03-20T15:52:50.552Z,7.83
2023-03-20T15:55:34.533Z,7.81
2023-03-20T15:58:09.534Z,7.78
2023-03-20T16:00:44.222Z,7.80
2023-03-20T16:03:25.586Z,7.80
2023-03-20T16:05:53.602Z,7.79
2023-03-20T16:08:37.488Z,7.81
2023-03-20T16:11:10.655Z,7.81
2023-03-20T16:13:50.546Z,7.73
2023-03-20T16:16:31.558Z,7.74
2023-03-20T16:18:59.391Z,7.72
2023-03-20T16:21:36.498Z,7.68
2023-03-20T16:24:09.219Z,7.63
2023-03-20T16:26:49.588Z,7.59
2023-03-20T16:29:24.618Z,7.53
2023-03-20T16:32:13.566Z,7.54
2023-03-20T16:34:47.574Z,7.53
2023-03-20T16:37:37.581Z,7.48
2023-03-20T16:40:19.514Z,7.50
2023-03-20T16:42:46.531Z,7.51
2023-03-20T16:45:36.596Z,7.49
2023-03-20T16:48:23.612Z,7.49
2023-03-20T16:51:10.587Z,7.51
2023-03-20T16:53:48.549Z,7.50
2023-03-20T16:56:26.232Z,7.50
2023-03-20T16:58:59.563Z,7.46
2023-03-20T17:01:35.539Z,7.47
2023-03-20T17:04:20.605Z,7.44
2023-03-20T17:06:57.584Z,7.47
2023-03-20T17:09:37.489Z,7.44
2023-03-20T17:12:24.543Z,7.46
2023-03-20T17:14:57.494Z,7.47
2023-03-20T17:17:31.556Z,7.44
2023-03-20T17:20:05.559Z,7.44
2023-03-20T17:22:33.590Z,7.51
2023-03-20T17:25:06.527Z,7.50
2023-03-20T17:27:34.423Z,7.50
2023-03-20T17:30:09.372Z,7.49
2023-03-20T17:32:38.019Z,7.48
2023-03-20T17:35:11.640Z,7.53
2023-03-20T17:37:45.595Z,7.55
2023-03-20T17:40:37.828Z,7.53
2023-03-20T17:43:15.560Z,7.56
2023-03-20T17:45:50.621Z,7.59
2023-03-20T17:48:37.617Z,7.58
2023-03-20T17:51:10.583Z,7.61
2023-03-20T17:53:57.778Z,7.61
2023-03-20T17:56:39.613Z,7.64
2023-03-20T17:59:06.821Z,7.63
2023-03-20T18:01:39.709Z,7.66
2023-03-20T18:04:06.328Z,7.66
2023-03-20T18:06:40.603Z,7.64
2023-03-20T18:09:09.009Z,7.64
2023-03-20T18:11:42.608Z,7.63
2023-03-20T18:14:09.156Z,7.61
2023-03-20T18:16:35.916Z,7.53
2023-03-20T18:19:09.595Z,7.57
2023-03-20T18:21:36.146Z,7.55
2023-03-20T18:24:09.625Z,7.54
2023-03-20T18:26:36.336Z,7.51
2023-03-20T18:29:09.621Z,7.51
2023-03-20T18:31:37.114Z,7.49
2023-03-20T18:34:11.536Z,7.50
2023-03-20T18:36:44.627Z,7.52
2023-03-20T18:39:29.549Z,7.48
2023-03-20T18:41:56.306Z,7.51
2023-03-20T18:44:29.636Z,7.52
2023-03-20T18:46:56.851Z,7.55
2023-03-20T18:49:36.600Z,7.56
2023-03-20T18:52:16.604Z,7.56
2023-03-20T18:54:55.972Z,7.57
2023-03-20T18:57:29.594Z,7.56
2023-03-20T18:59:56.268Z,7.56
2023-03-20T19:02:29.617Z,7.57
2023-03-20T19:04:56.538Z,7.57
2023-03-20T19:07:29.625Z,7.60
2023-03-20T19:09:56.441Z,7.61
2023-03-20T19:12:29.673Z,7.64
2023-03-20T19:14:56.552Z,7.63
2023-03-20T19:17:29.703Z,7.65
2023-03-20T19:20:02.628Z,7.64
2023-03-20T19:22:35.671Z,7.65
2023-03-20T19:25:02.422Z,7.66
2023-03-20T19:27:35.696Z,7.68
2023-03-20T19:30:02.641Z,7.70
2023-03-20T19:32:35.650Z,7.72
2023-03-20T19:35:46.835Z,7.72
2023-03-20T19:37:56.297Z,7.73
2023-03-20T19:40:31.526Z,7.76
2023-03-20T19:43:03.444Z,7.79
2023-03-20T19:45:39.679Z,7.78
2023-03-20T19:48:50.217Z,7.82
2023-03-20T19:51:31.712Z,7.80
2023-03-20T19:54:04.675Z,7.87
2023-03-20T19:56:31.636Z,7.88
2023-03-20T19:59:04.690Z,7.89
2023-03-20T20:01:38.719Z,7.89
2023-03-20T20:04:12.606Z,7.92
2023-03-20T20:06:42.003Z,7.94
2023-03-20T20:09:15.625Z,7.92
2023-03-20T20:11:56.007Z,7.96
2023-03-20T20:14:28.651Z,8.00
2023-03-20T20:17:02.766Z,8.01
2023-03-20T20:19:29.491Z,8.05
2023-03-20T20:22:20.029Z,8.03
2023-03-20T20:24:50.449Z,8.09
2023-03-20T20:27:25.654Z,8.16
2023-03-20T20:29:59.708Z,8.19
2023-03-20T20:32:35.839Z,8.19
2023-03-20T20:38:36.676Z,8.27
2023-03-20T20:40:51.632Z,8.32
2023-03-20T20:43:48.508Z,8.35
2023-03-20T20:46:11.456Z,8.35
2023-03-20T20:48:47.620Z,8.36
2023-03-20T20:51:22.539Z,8.37
2023-03-20T20:53:55.722Z,8.38
2023-03-20T20:56:22.322Z,8.41
2023-03-20T20:58:55.775Z,8.43
2023-03-20T21:01:22.527Z,8.44
2023-03-20T21:03:55.722Z,8.45
2023-03-20T21:06:22.809Z,8.45
2023-03-20T21:08:55.710Z,8.46
2023-03-20T21:11:28.727Z,8.50
2023-03-20T21:14:02.718Z,8.46
2023-03-20T21:16:31.217Z,8.50
2023-03-20T21:19:04.778Z,8.54
2023-03-20T21:21:31.534Z,8.56
2023-03-20T21:24:05.932Z,8.55
2023-03-20T21:26:38.729Z,8.55
2023-03-20T21:29:05.729Z,8.56
2023-03-20T21:31:38.783Z,8.58
2023-03-20T21:34:06.293Z,8.58
2023-03-20T21:36:48.668Z,8.59
2023-03-20T21:39:23.084Z,8.57
2023-03-20T21:42:01.715Z,8.62
2023-03-20T21:48:18.581Z,8.62
2023-03-20T21:50:48.342Z,8.61
2023-03-20T21:54:17.688Z,8.62
2023-03-20T21:56:42.275Z,8.54
2023-03-20T21:59:38.250Z,8.50
2023-03-20T22:08:08.910Z,8.62
2023-03-20T22:14:02.642Z,8.45
2023-03-20T22:22:34.362Z,8.61
2023-03-20T22:25:25.867Z,8.60
2023-03-20T22:28:22.484Z,8.63
2023-03-20T22:31:24.051Z,8.60
2023-03-20T22:37:04.403Z,8.64
2023-03-20T22:39:43.054Z,8.63
2023-03-20T22:42:32.930Z,8.60
2023-03-20T22:45:02.112Z,8.63
2023-03-20T22:47:40.781Z,8.62
2023-03-20T22:50:21.099Z,8.64
2023-03-20T22:52:54.800Z,8.63
2023-03-20T22:55:23.490Z,8.63
2023-03-20T22:58:06.827Z,8.63
2023-03-20T23:00:36.030Z,8.65
2023-03-20T23:03:22.364Z,8.66
2023-03-20T23:05:53.809Z,8.65
2023-03-20T23:08:28.124Z,8.66
2023-03-20T23:10:54.839Z,8.66
2023-03-20T23:13:28.702Z,8.66
2023-03-20T23:15:55.332Z,8.66
2023-03-20T23:18:28.732Z,8.67
2023-03-20T23:21:05.785Z,8.67
2023-03-20T23:23:39.710Z,8.67
2023-03-20T23:26:15.798Z,8.68
2023-03-20T23:28:52.784Z,8.68
2023-03-20T23:31:22.796Z,8.68
2023-03-20T23:33:58.779Z,8.68
2023-03-20T23:36:36.897Z,8.66
2023-03-20T23:39:15.881Z,8.68
2023-03-20T23:42:07.809Z,8.69
2023-03-20T23:44:49.901Z,8.68
2023-03-20T23:47:22.716Z,8.72
2023-03-20T23:50:02.755Z,8.73
2023-03-20T23:52:29.452Z,8.75
2023-03-20T23:55:02.786Z,8.76
2023-03-20T23:57:35.743Z,8.78
